UAE409 OMDB-OEDF
Flight info
| Callsign | UAE409 |
|---|---|
| Flight time | 1h 5m |
| Altitude | 37000 |
| Route | NABIX P699 ORMID Y856 NARMI J735 KFA |
| Aircraft | B77W/H-SDE1E2E3FGHIJ2J3J4J5M1RWXY/LB1D1 |
Departure
| Time | 2026-04-17 08:14 |
|---|---|
| Airport | Dubai International Airport (OMDB) |
Arrival
| Time | 2026-04-17 09:20 |
|---|---|
| Airport | King Fahd International Airport (OEDF) |
| Time | Latitude | Longitude | Altitude | Speed | Heading |
|---|---|---|---|---|---|
| 2026-04-17 07:53 | 25.24286 | 55.37530 | 27 ft | 0 kts | 207° |
| 2026-04-17 08:05 | 25.24287 | 55.37530 | 24 ft | 1 kts | 207° |
| 2026-04-17 08:05 | 25.24297 | 55.37536 | 28 ft | 2 kts | 207° |
| 2026-04-17 08:06 | 25.24309 | 55.37543 | 28 ft | 2 kts | 207° |
| 2026-04-17 08:06 | 25.24321 | 55.37550 | 28 ft | 2 kts | 207° |
| 2026-04-17 08:06 | 25.24334 | 55.37557 | 25 ft | 2 kts | 192° |
| 2026-04-17 08:06 | 25.24349 | 55.37558 | 24 ft | 2 kts | 166° |
| 2026-04-17 08:07 | 25.24363 | 55.37552 | 26 ft | 2 kts | 129° |
| 2026-04-17 08:07 | 25.24369 | 55.37544 | 24 ft | 0 kts | 126° |
| 2026-04-17 08:09 | 25.24368 | 55.37544 | 24 ft | 0 kts | 126° |
| 2026-04-17 08:10 | 25.24365 | 55.37549 | 27 ft | 2 kts | 126° |
| 2026-04-17 08:10 | 25.24340 | 55.37588 | 27 ft | 11 kts | 123° |
| 2026-04-17 08:10 | 25.24298 | 55.37664 | 27 ft | 12 kts | 121° |
| 2026-04-17 08:10 | 25.24266 | 55.37742 | 27 ft | 11 kts | 86° |
| 2026-04-17 08:11 | 25.24316 | 55.37802 | 27 ft | 10 kts | 37° |
| 2026-04-17 08:11 | 25.24370 | 55.37845 | 27 ft | 10 kts | 35° |
| 2026-04-17 08:11 | 25.24425 | 55.37888 | 27 ft | 10 kts | 35° |
| 2026-04-17 08:11 | 25.24480 | 55.37930 | 27 ft | 10 kts | 34° |
| 2026-04-17 08:12 | 25.24536 | 55.37972 | 26 ft | 10 kts | 34° |
| 2026-04-17 08:12 | 25.24592 | 55.38015 | 27 ft | 10 kts | 34° |
| 2026-04-17 08:12 | 25.24650 | 55.38056 | 27 ft | 10 kts | 31° |
| 2026-04-17 08:12 | 25.24711 | 55.38095 | 27 ft | 10 kts | 31° |
| 2026-04-17 08:13 | 25.24769 | 55.38084 | 27 ft | 10 kts | 307° |
| 2026-04-17 08:13 | 25.24777 | 55.38070 | 27 ft | 0 kts | 303° |
| 2026-04-17 08:13 | 25.24824 | 55.37986 | 27 ft | 45 kts | 302° |
| 2026-04-17 08:14 | 25.25708 | 55.36401 | 54 ft | 182 kts | 301° |
| 2026-04-17 08:14 | 25.26393 | 55.35192 | 764 ft | 182 kts | 300° |
| 2026-04-17 08:14 | 25.27061 | 55.34015 | 1664 ft | 182 kts | 298° |
| 2026-04-17 08:14 | 25.27722 | 55.32810 | 2458 ft | 185 kts | 299° |
| 2026-04-17 08:15 | 25.28392 | 55.31602 | 3319 ft | 184 kts | 299° |
| 2026-04-17 08:15 | 25.29050 | 55.30376 | 4060 ft | 185 kts | 293° |
| 2026-04-17 08:15 | 25.29224 | 55.28982 | 4669 ft | 189 kts | 261° |
| 2026-04-17 08:15 | 25.28749 | 55.27604 | 5268 ft | 194 kts | 248° |
| 2026-04-17 08:16 | 25.28152 | 55.26258 | 5855 ft | 197 kts | 250° |
| 2026-04-17 08:16 | 25.27569 | 55.24871 | 6513 ft | 200 kts | 250° |
| 2026-04-17 08:16 | 25.26988 | 55.23484 | 7080 ft | 202 kts | 250° |
| 2026-04-17 08:16 | 25.26388 | 55.22060 | 7706 ft | 203 kts | 250° |
| 2026-04-17 08:17 | 25.25790 | 55.20629 | 8100 ft | 218 kts | 249° |
| 2026-04-17 08:17 | 25.25123 | 55.19040 | 8422 ft | 234 kts | 248° |
| 2026-04-17 08:17 | 25.24422 | 55.17389 | 9006 ft | 241 kts | 248° |
| 2026-04-17 08:17 | 25.23852 | 55.15652 | 9515 ft | 247 kts | 263° |
| 2026-04-17 08:18 | 25.23705 | 55.13676 | 9693 ft | 264 kts | 269° |
| 2026-04-17 08:18 | 25.23590 | 55.11612 | 10081 ft | 273 kts | 266° |
| 2026-04-17 08:18 | 25.23336 | 55.09476 | 10331 ft | 289 kts | 262° |
| 2026-04-17 08:18 | 25.22958 | 55.07218 | 10461 ft | 309 kts | 261° |
| 2026-04-17 08:19 | 25.22546 | 55.04828 | 10593 ft | 326 kts | 261° |
| 2026-04-17 08:19 | 25.22140 | 55.02271 | 10868 ft | 347 kts | 262° |
| 2026-04-17 08:19 | 25.21754 | 54.99608 | 11559 ft | 354 kts | 263° |
| 2026-04-17 08:19 | 25.21380 | 54.96909 | 12124 ft | 356 kts | 263° |
| 2026-04-17 08:20 | 25.21016 | 54.94181 | 12703 ft | 364 kts | 264° |
| 2026-04-17 08:20 | 25.20723 | 54.91407 | 13734 ft | 365 kts | 265° |
| 2026-04-17 08:20 | 25.20502 | 54.88608 | 14672 ft | 367 kts | 267° |
| 2026-04-17 08:20 | 25.20344 | 54.85774 | 15492 ft | 373 kts | 268° |
| 2026-04-17 08:21 | 25.20211 | 54.82886 | 16286 ft | 380 kts | 267° |
| 2026-04-17 08:21 | 25.20044 | 54.79962 | 17117 ft | 385 kts | 266° |
| 2026-04-17 08:21 | 25.19841 | 54.76977 | 17958 ft | 390 kts | 265° |
| 2026-04-17 08:21 | 25.19698 | 54.74016 | 18680 ft | 396 kts | 268° |
| 2026-04-17 08:22 | 25.19715 | 54.70966 | 19265 ft | 395 kts | 271° |
| 2026-04-17 08:22 | 25.19813 | 54.68912 | 19459 ft | 398 kts | 274° |
| 2026-04-17 08:22 | 25.20158 | 54.64853 | 19760 ft | 405 kts | 276° |
| 2026-04-17 08:22 | 25.20385 | 54.62789 | 19964 ft | 407 kts | 276° |
| 2026-04-17 08:23 | 25.20707 | 54.59631 | 20505 ft | 411 kts | 275° |
| 2026-04-17 08:23 | 25.20942 | 54.56518 | 21322 ft | 413 kts | 274° |
| 2026-04-17 08:23 | 25.21128 | 54.53310 | 22067 ft | 413 kts | 274° |
| 2026-04-17 08:23 | 25.21451 | 54.50196 | 22336 ft | 416 kts | 280° |
| 2026-04-17 08:24 | 25.22182 | 54.47078 | 22443 ft | 422 kts | 287° |
| 2026-04-17 08:24 | 25.23146 | 54.43965 | 22961 ft | 428 kts | 288° |
| 2026-04-17 08:24 | 25.24119 | 54.40844 | 23697 ft | 430 kts | 287° |
| 2026-04-17 08:24 | 25.25006 | 54.37691 | 24282 ft | 432 kts | 285° |
| 2026-04-17 08:25 | 25.25821 | 54.34472 | 24877 ft | 436 kts | 284° |
| 2026-04-17 08:25 | 25.26604 | 54.31234 | 25465 ft | 438 kts | 284° |
| 2026-04-17 08:25 | 25.27390 | 54.27965 | 26047 ft | 441 kts | 284° |
| 2026-04-17 08:25 | 25.28196 | 54.24674 | 26598 ft | 445 kts | 284° |
| 2026-04-17 08:26 | 25.29018 | 54.21360 | 27159 ft | 448 kts | 284° |
| 2026-04-17 08:26 | 25.29849 | 54.18030 | 27693 ft | 451 kts | 284° |
| 2026-04-17 08:26 | 25.30673 | 54.14727 | 28216 ft | 454 kts | 284° |
| 2026-04-17 08:26 | 25.31507 | 54.11338 | 28780 ft | 456 kts | 283° |
| 2026-04-17 08:27 | 25.32296 | 54.07956 | 29517 ft | 453 kts | 283° |
| 2026-04-17 08:27 | 25.33014 | 54.04618 | 30074 ft | 445 kts | 281° |
| 2026-04-17 08:27 | 25.33683 | 54.01251 | 30368 ft | 449 kts | 281° |
| 2026-04-17 08:27 | 25.34344 | 53.97881 | 30924 ft | 448 kts | 281° |
| 2026-04-17 08:28 | 25.35019 | 53.94533 | 31623 ft | 444 kts | 281° |
| 2026-04-17 08:28 | 25.35714 | 53.91205 | 31982 ft | 443 kts | 282° |
| 2026-04-17 08:28 | 25.36421 | 53.87893 | 31961 ft | 440 kts | 282° |
| 2026-04-17 08:29 | 25.37815 | 53.81342 | 31967 ft | 441 kts | 282° |
| 2026-04-17 08:29 | 25.39196 | 53.74717 | 31967 ft | 443 kts | 281° |
| 2026-04-17 08:30 | 25.40579 | 53.68044 | 31965 ft | 443 kts | 281° |
| 2026-04-17 08:30 | 25.41954 | 53.61420 | 31960 ft | 443 kts | 281° |
| 2026-04-17 08:31 | 25.43329 | 53.54800 | 31958 ft | 441 kts | 281° |
| 2026-04-17 08:31 | 25.44706 | 53.48196 | 31961 ft | 440 kts | 281° |
| 2026-04-17 08:32 | 25.46078 | 53.41607 | 31959 ft | 438 kts | 281° |
| 2026-04-17 08:32 | 25.47439 | 53.35045 | 31963 ft | 438 kts | 281° |
| 2026-04-17 08:33 | 25.48798 | 53.28470 | 31961 ft | 438 kts | 281° |
| 2026-04-17 08:33 | 25.50145 | 53.21946 | 31966 ft | 438 kts | 281° |
| 2026-04-17 08:34 | 25.51493 | 53.15394 | 31963 ft | 438 kts | 281° |
| 2026-04-17 08:34 | 25.52850 | 53.08776 | 31963 ft | 438 kts | 281° |
| 2026-04-17 08:35 | 25.54197 | 53.02194 | 31965 ft | 438 kts | 281° |
| 2026-04-17 08:35 | 25.55538 | 52.95628 | 31969 ft | 437 kts | 281° |
| 2026-04-17 08:36 | 25.57155 | 52.89144 | 31959 ft | 435 kts | 287° |
| 2026-04-17 08:36 | 25.59570 | 52.83084 | 31967 ft | 430 kts | 297° |
| 2026-04-17 08:37 | 25.62735 | 52.77455 | 31986 ft | 440 kts | 300° |
| 2026-04-17 08:37 | 25.65952 | 52.71583 | 31973 ft | 443 kts | 297° |
| 2026-04-17 08:38 | 25.68890 | 52.65611 | 31969 ft | 440 kts | 295° |
| 2026-04-17 08:38 | 25.71730 | 52.59631 | 31974 ft | 437 kts | 295° |
| 2026-04-17 08:39 | 25.74600 | 52.53680 | 31973 ft | 436 kts | 295° |
| 2026-04-17 08:39 | 25.77458 | 52.47755 | 31973 ft | 436 kts | 295° |
| 2026-04-17 08:40 | 25.80243 | 52.41795 | 31977 ft | 436 kts | 295° |
| 2026-04-17 08:40 | 25.83028 | 52.35807 | 31974 ft | 437 kts | 295° |
| 2026-04-17 08:41 | 25.85845 | 52.29825 | 31975 ft | 438 kts | 296° |
| 2026-04-17 08:41 | 25.89020 | 52.24198 | 31978 ft | 430 kts | 304° |
| 2026-04-17 08:41 | 25.91045 | 52.21715 | 31987 ft | 442 kts | 314° |
| 2026-04-17 08:42 | 25.93427 | 52.19498 | 31980 ft | 447 kts | 317° |
| 2026-04-17 08:42 | 25.97972 | 52.14948 | 31980 ft | 440 kts | 302° |
| 2026-04-17 08:43 | 26.01024 | 52.09058 | 31984 ft | 437 kts | 296° |
| 2026-04-17 08:43 | 26.02738 | 52.06265 | 31960 ft | 444 kts | 310° |
| 2026-04-17 08:43 | 26.05144 | 52.04024 | 31988 ft | 457 kts | 320° |
| 2026-04-17 08:44 | 26.10199 | 51.99928 | 31962 ft | 442 kts | 312° |
| 2026-04-17 08:44 | 26.12161 | 51.97313 | 31998 ft | 442 kts | 301° |
| 2026-04-17 08:44 | 26.13856 | 51.94485 | 31976 ft | 438 kts | 300° |
| 2026-04-17 08:45 | 26.17911 | 51.89449 | 32011 ft | 451 kts | 321° |
| 2026-04-17 08:45 | 26.23210 | 51.85745 | 31971 ft | 445 kts | 320° |
| 2026-04-17 08:45 | 26.25377 | 51.83354 | 31993 ft | 437 kts | 299° |
| 2026-04-17 08:46 | 26.26572 | 51.80264 | 31980 ft | 438 kts | 280° |
| 2026-04-17 08:46 | 26.27288 | 51.73583 | 31975 ft | 428 kts | 277° |
| 2026-04-17 08:46 | 26.28189 | 51.70477 | 31984 ft | 437 kts | 297° |
| 2026-04-17 08:47 | 26.30091 | 51.67775 | 31976 ft | 446 kts | 310° |
| 2026-04-17 08:47 | 26.34429 | 51.62812 | 31972 ft | 441 kts | 308° |
| 2026-04-17 08:48 | 26.38018 | 51.57423 | 31980 ft | 433 kts | 297° |
| 2026-04-17 08:48 | 26.40554 | 51.51387 | 31986 ft | 429 kts | 287° |
| 2026-04-17 08:49 | 26.42210 | 51.44889 | 31988 ft | 442 kts | 283° |
| 2026-04-17 08:49 | 26.43814 | 51.38298 | 31973 ft | 440 kts | 284° |
| 2026-04-17 08:50 | 26.45661 | 51.31795 | 31980 ft | 438 kts | 287° |
| 2026-04-17 08:50 | 26.47692 | 51.25386 | 31984 ft | 437 kts | 287° |
| 2026-04-17 08:51 | 26.49649 | 51.18960 | 31984 ft | 436 kts | 286° |
| 2026-04-17 08:51 | 26.51470 | 51.12494 | 31987 ft | 435 kts | 285° |
| 2026-04-17 08:52 | 26.53245 | 51.06052 | 31993 ft | 435 kts | 285° |
| 2026-04-17 08:52 | 26.55039 | 50.99588 | 31987 ft | 432 kts | 284° |
| 2026-04-17 08:53 | 26.55423 | 50.93139 | 31989 ft | 429 kts | 253° |
| 2026-04-17 08:53 | 26.54089 | 50.90135 | 31996 ft | 438 kts | 237° |
| 2026-04-17 08:53 | 26.52144 | 50.87432 | 31986 ft | 440 kts | 229° |
| 2026-04-17 08:54 | 26.47503 | 50.83027 | 31982 ft | 442 kts | 219° |
| 2026-04-17 08:54 | 26.42434 | 50.79126 | 31985 ft | 441 kts | 218° |
| 2026-04-17 08:55 | 26.37454 | 50.75154 | 31985 ft | 440 kts | 220° |
| 2026-04-17 08:55 | 26.32543 | 50.71060 | 31993 ft | 440 kts | 220° |
| 2026-04-17 08:56 | 26.28055 | 50.66690 | 31579 ft | 416 kts | 239° |
| 2026-04-17 08:56 | 26.26918 | 50.63781 | 31113 ft | 408 kts | 259° |
| 2026-04-17 08:56 | 26.26647 | 50.60662 | 30661 ft | 401 kts | 269° |
| 2026-04-17 08:56 | 26.26782 | 50.57634 | 30056 ft | 385 kts | 275° |
| 2026-04-17 08:57 | 26.27123 | 50.54709 | 29434 ft | 379 kts | 277° |
| 2026-04-17 08:57 | 26.27543 | 50.51792 | 28831 ft | 384 kts | 278° |
| 2026-04-17 08:57 | 26.27975 | 50.48842 | 28257 ft | 386 kts | 278° |
| 2026-04-17 08:57 | 26.28390 | 50.45892 | 27684 ft | 382 kts | 278° |
| 2026-04-17 08:58 | 26.28716 | 50.42989 | 27081 ft | 377 kts | 274° |
| 2026-04-17 08:58 | 26.28750 | 50.40071 | 26499 ft | 373 kts | 266° |
| 2026-04-17 08:58 | 26.28333 | 50.37250 | 25909 ft | 370 kts | 255° |
| 2026-04-17 08:58 | 26.27374 | 50.34594 | 25365 ft | 370 kts | 244° |
| 2026-04-17 08:59 | 26.25956 | 50.32244 | 24853 ft | 370 kts | 234° |
| 2026-04-17 08:59 | 26.24267 | 50.30095 | 24323 ft | 370 kts | 231° |
| 2026-04-17 08:59 | 26.22496 | 50.28014 | 23814 ft | 369 kts | 230° |
| 2026-04-17 08:59 | 26.20718 | 50.25972 | 23252 ft | 364 kts | 230° |
| 2026-04-17 09:00 | 26.18969 | 50.23976 | 22622 ft | 355 kts | 230° |
| 2026-04-17 09:00 | 26.17271 | 50.22034 | 22052 ft | 348 kts | 229° |
| 2026-04-17 09:00 | 26.15604 | 50.20117 | 21457 ft | 343 kts | 230° |
| 2026-04-17 09:00 | 26.13942 | 50.18192 | 20885 ft | 341 kts | 230° |
| 2026-04-17 09:01 | 26.12317 | 50.16297 | 20350 ft | 339 kts | 230° |
| 2026-04-17 09:01 | 26.10691 | 50.14388 | 19785 ft | 337 kts | 230° |
| 2026-04-17 09:01 | 26.09092 | 50.12501 | 19258 ft | 335 kts | 230° |
| 2026-04-17 09:01 | 26.07503 | 50.10616 | 18736 ft | 334 kts | 230° |
| 2026-04-17 09:02 | 26.05920 | 50.08730 | 18210 ft | 332 kts | 230° |
| 2026-04-17 09:02 | 26.04346 | 50.06848 | 17621 ft | 330 kts | 230° |
| 2026-04-17 09:02 | 26.02786 | 50.04982 | 17044 ft | 328 kts | 230° |
| 2026-04-17 09:02 | 26.01237 | 50.03128 | 16459 ft | 326 kts | 230° |
| 2026-04-17 09:03 | 25.99704 | 50.01292 | 15918 ft | 322 kts | 230° |
| 2026-04-17 09:03 | 25.98214 | 49.99507 | 15363 ft | 319 kts | 230° |
| 2026-04-17 09:03 | 25.96687 | 49.97676 | 14816 ft | 316 kts | 230° |
| 2026-04-17 09:03 | 25.95222 | 49.95918 | 14288 ft | 312 kts | 230° |
| 2026-04-17 09:04 | 25.93739 | 49.94137 | 13743 ft | 308 kts | 230° |
| 2026-04-17 09:04 | 25.92311 | 49.92420 | 13168 ft | 305 kts | 230° |
| 2026-04-17 09:04 | 25.90878 | 49.90696 | 12583 ft | 303 kts | 230° |
| 2026-04-17 09:04 | 25.89399 | 49.89022 | 12016 ft | 302 kts | 224° |
| 2026-04-17 09:05 | 25.87701 | 49.87651 | 11445 ft | 304 kts | 211° |
| 2026-04-17 09:05 | 25.85664 | 49.86976 | 10867 ft | 311 kts | 186° |
| 2026-04-17 09:05 | 25.83518 | 49.87327 | 10352 ft | 316 kts | 160° |
| 2026-04-17 09:05 | 25.81618 | 49.88598 | 10156 ft | 322 kts | 141° |
| 2026-04-17 09:06 | 25.80239 | 49.90540 | 10003 ft | 320 kts | 111° |
| 2026-04-17 09:06 | 25.79933 | 49.92843 | 9989 ft | 290 kts | 79° |
| 2026-04-17 09:06 | 25.80523 | 49.94834 | 9890 ft | 267 kts | 57° |
| 2026-04-17 09:06 | 25.81581 | 49.96463 | 9589 ft | 254 kts | 41° |
| 2026-04-17 09:07 | 25.82936 | 49.97651 | 9271 ft | 243 kts | 23° |
| 2026-04-17 09:07 | 25.84473 | 49.98354 | 8908 ft | 237 kts | 12° |
| 2026-04-17 09:07 | 25.86074 | 49.98702 | 8611 ft | 231 kts | 356° |
| 2026-04-17 09:07 | 25.87632 | 49.98402 | 8310 ft | 228 kts | 339° |
| 2026-04-17 09:08 | 25.89111 | 49.97848 | 8023 ft | 222 kts | 338° |
| 2026-04-17 09:08 | 25.90570 | 49.97362 | 7765 ft | 215 kts | 342° |
| 2026-04-17 09:08 | 25.92025 | 49.96958 | 7533 ft | 218 kts | 342° |
| 2026-04-17 09:08 | 25.93025 | 49.96688 | 7324 ft | 218 kts | 342° |
| 2026-04-17 09:09 | 25.94472 | 49.96294 | 7042 ft | 216 kts | 342° |
| 2026-04-17 09:09 | 25.95925 | 49.95897 | 6756 ft | 214 kts | 342° |
| 2026-04-17 09:09 | 25.97363 | 49.95501 | 6464 ft | 213 kts | 342° |
| 2026-04-17 09:09 | 25.98791 | 49.95105 | 6173 ft | 211 kts | 342° |
| 2026-04-17 09:10 | 26.01626 | 49.94307 | 5579 ft | 209 kts | 342° |
| 2026-04-17 09:10 | 26.03036 | 49.93908 | 5268 ft | 208 kts | 343° |
| 2026-04-17 09:10 | 26.04433 | 49.93510 | 4996 ft | 208 kts | 343° |
| 2026-04-17 09:11 | 26.05852 | 49.93108 | 4726 ft | 212 kts | 344° |
| 2026-04-17 09:11 | 26.07289 | 49.92700 | 4468 ft | 214 kts | 344° |
| 2026-04-17 09:11 | 26.08732 | 49.92288 | 4174 ft | 212 kts | 344° |
| 2026-04-17 09:11 | 26.10114 | 49.91899 | 3931 ft | 201 kts | 344° |
| 2026-04-17 09:12 | 26.11434 | 49.91525 | 3574 ft | 190 kts | 344° |
| 2026-04-17 09:12 | 26.12686 | 49.91198 | 3269 ft | 184 kts | 348° |
| 2026-04-17 09:12 | 26.13955 | 49.90970 | 3031 ft | 184 kts | 348° |
| 2026-04-17 09:12 | 26.15186 | 49.90689 | 3066 ft | 182 kts | 345° |
| 2026-04-17 09:13 | 26.16458 | 49.90346 | 3104 ft | 192 kts | 344° |
| 2026-04-17 09:13 | 26.17754 | 49.89970 | 3112 ft | 193 kts | 343° |
| 2026-04-17 09:13 | 26.19055 | 49.89578 | 3134 ft | 194 kts | 343° |
| 2026-04-17 09:13 | 26.20356 | 49.89179 | 3108 ft | 195 kts | 342° |
| 2026-04-17 09:14 | 26.21658 | 49.88777 | 3114 ft | 196 kts | 342° |
| 2026-04-17 09:14 | 26.22974 | 49.88369 | 3134 ft | 197 kts | 343° |
| 2026-04-17 09:14 | 26.24324 | 49.87947 | 3132 ft | 199 kts | 343° |
| 2026-04-17 09:14 | 26.25651 | 49.87540 | 3126 ft | 196 kts | 343° |
| 2026-04-17 09:15 | 26.26932 | 49.87143 | 3115 ft | 191 kts | 343° |
| 2026-04-17 09:15 | 26.28213 | 49.86749 | 3103 ft | 192 kts | 343° |
| 2026-04-17 09:15 | 26.29504 | 49.86355 | 3114 ft | 192 kts | 343° |
| 2026-04-17 09:15 | 26.30801 | 49.85953 | 2916 ft | 195 kts | 343° |
| 2026-04-17 09:16 | 26.32062 | 49.85564 | 2693 ft | 180 kts | 342° |
| 2026-04-17 09:16 | 26.33231 | 49.85203 | 2435 ft | 168 kts | 342° |
| 2026-04-17 09:16 | 26.34315 | 49.84870 | 2239 ft | 154 kts | 342° |
| 2026-04-17 09:16 | 26.35294 | 49.84567 | 2040 ft | 140 kts | 342° |
| 2026-04-17 09:17 | 26.36229 | 49.84274 | 1896 ft | 141 kts | 342° |
| 2026-04-17 09:17 | 26.37183 | 49.83980 | 1715 ft | 142 kts | 343° |
| 2026-04-17 09:17 | 26.38126 | 49.83688 | 1501 ft | 140 kts | 341° |
| 2026-04-17 09:17 | 26.39065 | 49.83396 | 1334 ft | 141 kts | 342° |
| 2026-04-17 09:18 | 26.40022 | 49.83100 | 1155 ft | 143 kts | 343° |
| 2026-04-17 09:18 | 26.40954 | 49.82822 | 920 ft | 134 kts | 342° |
| 2026-04-17 09:18 | 26.41842 | 49.82558 | 732 ft | 135 kts | 340° |
| 2026-04-17 09:18 | 26.42788 | 49.82257 | 612 ft | 146 kts | 341° |
| 2026-04-17 09:19 | 26.43770 | 49.81944 | 457 ft | 150 kts | 343° |
| 2026-04-17 09:19 | 26.44756 | 49.81628 | 252 ft | 143 kts | 345° |
| 2026-04-17 09:19 | 26.45684 | 49.81349 | 99 ft | 135 kts | 345° |
| 2026-04-17 09:19 | 26.46488 | 49.81101 | 97 ft | 99 kts | 344° |
| 2026-04-17 09:20 | 26.46971 | 49.80953 | 94 ft | 45 kts | 344° |
| 2026-04-17 09:20 | 26.47169 | 49.80892 | 93 ft | 26 kts | 345° |
| 2026-04-17 09:20 | 26.47343 | 49.80839 | 93 ft | 25 kts | 345° |
| 2026-04-17 09:20 | 26.47506 | 49.80791 | 91 ft | 23 kts | 345° |
| 2026-04-17 09:21 | 26.47622 | 49.80705 | 94 ft | 18 kts | 311° |
| 2026-04-17 09:21 | 26.47711 | 49.80609 | 94 ft | 17 kts | 317° |
| 2026-04-17 09:21 | 26.47774 | 49.80541 | 92 ft | 12 kts | 315° |
| 2026-04-17 09:21 | 26.47829 | 49.80473 | 94 ft | 12 kts | 304° |
| 2026-04-17 09:22 | 26.47839 | 49.80386 | 91 ft | 12 kts | 259° |
| 2026-04-17 09:22 | 26.47821 | 49.80298 | 92 ft | 12 kts | 257° |
| 2026-04-17 09:22 | 26.47798 | 49.80211 | 93 ft | 12 kts | 253° |
| 2026-04-17 09:22 | 26.47775 | 49.80124 | 92 ft | 12 kts | 255° |
| 2026-04-17 09:23 | 26.47754 | 49.80037 | 94 ft | 12 kts | 255° |
| 2026-04-17 09:23 | 26.47733 | 49.79950 | 98 ft | 12 kts | 255° |
| 2026-04-17 09:23 | 26.47712 | 49.79866 | 99 ft | 12 kts | 255° |
| 2026-04-17 09:23 | 26.47691 | 49.79778 | 100 ft | 12 kts | 255° |
| 2026-04-17 09:24 | 26.47669 | 49.79690 | 100 ft | 12 kts | 255° |
| 2026-04-17 09:24 | 26.47647 | 49.79603 | 100 ft | 12 kts | 254° |
| 2026-04-17 09:24 | 26.47625 | 49.79516 | 100 ft | 12 kts | 254° |
| 2026-04-17 09:24 | 26.47602 | 49.79426 | 100 ft | 13 kts | 254° |
| 2026-04-17 09:25 | 26.47575 | 49.79321 | 97 ft | 16 kts | 254° |
| 2026-04-17 09:25 | 26.47560 | 49.79264 | 93 ft | 3 kts | 255° |
| 2026-04-17 09:25 | 26.47552 | 49.79229 | 92 ft | 6 kts | 255° |
| 2026-04-17 09:25 | 26.47541 | 49.79184 | 93 ft | 5 kts | 255° |
| 2026-04-17 09:26 | 26.47528 | 49.79149 | 94 ft | 5 kts | 235° |
| 2026-04-17 09:26 | 26.47495 | 49.79128 | 93 ft | 6 kts | 194° |
| 2026-04-17 09:26 | 26.47453 | 49.79129 | 93 ft | 6 kts | 172° |
| 2026-04-17 09:26 | 26.47407 | 49.79140 | 93 ft | 7 kts | 166° |
| 2026-04-17 09:27 | 26.47365 | 49.79152 | 91 ft | 7 kts | 164° |
| 2026-04-17 09:27 | 26.47319 | 49.79170 | 94 ft | 7 kts | 157° |
| 2026-04-17 09:27 | 26.47271 | 49.79194 | 94 ft | 8 kts | 155° |
| 2026-04-17 09:27 | 26.47219 | 49.79221 | 92 ft | 9 kts | 154° |
| 2026-04-17 09:28 | 26.47163 | 49.79251 | 94 ft | 9 kts | 154° |
| 2026-04-17 09:28 | 26.47103 | 49.79284 | 94 ft | 10 kts | 154° |
| 2026-04-17 09:28 | 26.47074 | 49.79307 | 94 ft | 4 kts | 126° |
| 2026-04-17 09:28 | 26.47071 | 49.79335 | 94 ft | 3 kts | 85° |
| 2026-04-17 09:29 | 26.47078 | 49.79357 | 94 ft | 3 kts | 68° |
| 2026-04-17 09:29 | 26.47084 | 49.79374 | 93 ft | 0 kts | 66° |
| 2026-04-17 09:29 | 26.47085 | 49.79375 | 94 ft | 0 kts | 64° |